sensor_id;sensor_type;location;lat;lon;timestamp;P1;durP1;ratioP1;P2;durP2;ratioP2
15929;SDS011;8064;51.142;4.780;2023-06-10T00:00:45;8.60;;;7.75;;
15929;SDS011;8064;51.142;4.780;2023-06-10T00:03:11;9.93;;;8.02;;
15929;SDS011;8064;51.142;4.780;2023-06-10T00:05:38;8.77;;;7.72;;
15929;SDS011;8064;51.142;4.780;2023-06-10T00:08:04;8.77;;;7.90;;
15929;SDS011;8064;51.142;4.780;2023-06-10T00:10:33;8.75;;;8.05;;
15929;SDS011;8064;51.142;4.780;2023-06-10T00:13:00;8.98;;;8.07;;
15929;SDS011;8064;51.142;4.780;2023-06-10T00:15:27;9.43;;;8.65;;
15929;SDS011;8064;51.142;4.780;2023-06-10T00:17:53;8.90;;;8.10;;
15929;SDS011;8064;51.142;4.780;2023-06-10T00:20:20;9.70;;;8.70;;
15929;SDS011;8064;51.142;4.780;2023-06-10T00:22:49;9.60;;;8.32;;
15929;SDS011;8064;51.142;4.780;2023-06-10T00:25:15;9.18;;;8.40;;
15929;SDS011;8064;51.142;4.780;2023-06-10T00:27:41;8.45;;;7.50;;
15929;SDS011;8064;51.142;4.780;2023-06-10T00:30:07;9.05;;;8.25;;
15929;SDS011;8064;51.142;4.780;2023-06-10T00:32:33;10.85;;;8.38;;
15929;SDS011;8064;51.142;4.780;2023-06-10T00:34:59;9.07;;;8.25;;
15929;SDS011;8064;51.142;4.780;2023-06-10T00:37:25;10.50;;;9.20;;
15929;SDS011;8064;51.142;4.780;2023-06-10T00:39:51;9.55;;;8.60;;
15929;SDS011;8064;51.142;4.780;2023-06-10T00:42:17;9.63;;;8.63;;
15929;SDS011;8064;51.142;4.780;2023-06-10T00:44:43;9.48;;;8.52;;
15929;SDS011;8064;51.142;4.780;2023-06-10T00:47:08;9.60;;;8.80;;
15929;SDS011;8064;51.142;4.780;2023-06-10T00:49:34;9.45;;;8.50;;
15929;SDS011;8064;51.142;4.780;2023-06-10T00:52:01;10.00;;;7.93;;
15929;SDS011;8064;51.142;4.780;2023-06-10T00:54:29;8.80;;;7.90;;
15929;SDS011;8064;51.142;4.780;2023-06-10T00:56:55;9.77;;;8.23;;
15929;SDS011;8064;51.142;4.780;2023-06-10T00:59:22;9.52;;;8.35;;
15929;SDS011;8064;51.142;4.780;2023-06-10T01:01:50;10.43;;;9.45;;
15929;SDS011;8064;51.142;4.780;2023-06-10T01:04:17;9.77;;;8.88;;
15929;SDS011;8064;51.142;4.780;2023-06-10T01:09:15;9.40;;;8.60;;
15929;SDS011;8064;51.142;4.780;2023-06-10T01:11:46;10.10;;;9.25;;
15929;SDS011;8064;51.142;4.780;2023-06-10T01:14:15;10.52;;;9.07;;
15929;SDS011;8064;51.142;4.780;2023-06-10T01:16:42;9.70;;;8.80;;
15929;SDS011;8064;51.142;4.780;2023-06-10T01:19:11;10.70;;;9.73;;
15929;SDS011;8064;51.142;4.780;2023-06-10T01:21:38;10.52;;;9.63;;
15929;SDS011;8064;51.142;4.780;2023-06-10T01:24:04;10.63;;;9.73;;
15929;SDS011;8064;51.142;4.780;2023-06-10T01:26:35;10.73;;;9.80;;
15929;SDS011;8064;51.142;4.780;2023-06-10T01:29:07;13.07;;;9.00;;
15929;SDS011;8064;51.142;4.780;2023-06-10T01:34:40;11.95;;;10.95;;
15929;SDS011;8064;51.142;4.780;2023-06-10T01:37:09;11.60;;;10.43;;
15929;SDS011;8064;51.142;4.780;2023-06-10T01:39:38;11.50;;;10.50;;
15929;SDS011;8064;51.142;4.780;2023-06-10T01:42:05;10.95;;;9.98;;
15929;SDS011;8064;51.142;4.780;2023-06-10T01:44:31;11.20;;;10.18;;
15929;SDS011;8064;51.142;4.780;2023-06-10T01:46:57;12.00;;;10.95;;
15929;SDS011;8064;51.142;4.780;2023-06-10T01:49:23;11.90;;;10.65;;
15929;SDS011;8064;51.142;4.780;2023-06-10T01:51:49;11.68;;;10.60;;
15929;SDS011;8064;51.142;4.780;2023-06-10T01:54:15;10.50;;;9.70;;
15929;SDS011;8064;51.142;4.780;2023-06-10T01:56:41;11.27;;;10.30;;
15929;SDS011;8064;51.142;4.780;2023-06-10T01:59:07;13.85;;;10.77;;
15929;SDS011;8064;51.142;4.780;2023-06-10T02:01:33;12.88;;;11.52;;
15929;SDS011;8064;51.142;4.780;2023-06-10T02:03:58;13.70;;;12.63;;
15929;SDS011;8064;51.142;4.780;2023-06-10T02:06:24;11.45;;;10.38;;
15929;SDS011;8064;51.142;4.780;2023-06-10T02:08:50;11.82;;;10.75;;
15929;SDS011;8064;51.142;4.780;2023-06-10T02:11:16;12.95;;;11.85;;
15929;SDS011;8064;51.142;4.780;2023-06-10T02:13:42;15.02;;;13.70;;
15929;SDS011;8064;51.142;4.780;2023-06-10T02:16:07;12.88;;;11.93;;
15929;SDS011;8064;51.142;4.780;2023-06-10T02:18:37;12.07;;;10.98;;
15929;SDS011;8064;51.142;4.780;2023-06-10T02:21:06;15.95;;;14.68;;
15929;SDS011;8064;51.142;4.780;2023-06-10T02:23:32;13.93;;;12.82;;
15929;SDS011;8064;51.142;4.780;2023-06-10T02:25:57;13.27;;;12.07;;
15929;SDS011;8064;51.142;4.780;2023-06-10T02:28:23;14.90;;;13.73;;
15929;SDS011;8064;51.142;4.780;2023-06-10T02:30:50;18.52;;;16.95;;
15929;SDS011;8064;51.142;4.780;2023-06-10T02:33:17;18.48;;;16.90;;
15929;SDS011;8064;51.142;4.780;2023-06-10T02:35:43;21.65;;;20.27;;
15929;SDS011;8064;51.142;4.780;2023-06-10T02:38:09;22.38;;;20.92;;
15929;SDS011;8064;51.142;4.780;2023-06-10T02:40:35;26.33;;;24.42;;
15929;SDS011;8064;51.142;4.780;2023-06-10T02:43:00;25.08;;;23.17;;
15929;SDS011;8064;51.142;4.780;2023-06-10T02:45:26;23.63;;;22.08;;
15929;SDS011;8064;51.142;4.780;2023-06-10T02:47:52;25.02;;;23.48;;
15929;SDS011;8064;51.142;4.780;2023-06-10T02:50:18;33.80;;;31.83;;
15929;SDS011;8064;51.142;4.780;2023-06-10T02:52:44;48.53;;;45.92;;
15929;SDS011;8064;51.142;4.780;2023-06-10T02:55:09;44.80;;;42.13;;
15929;SDS011;8064;51.142;4.780;2023-06-10T02:57:35;54.17;;;51.22;;
15929;SDS011;8064;51.142;4.780;2023-06-10T03:00:01;49.17;;;46.30;;
15929;SDS011;8064;51.142;4.780;2023-06-10T03:02:29;63.65;;;60.22;;
15929;SDS011;8064;51.142;4.780;2023-06-10T03:04:56;70.10;;;66.47;;
15929;SDS011;8064;51.142;4.780;2023-06-10T03:07:23;86.95;;;82.43;;
15929;SDS011;8064;51.142;4.780;2023-06-10T03:09:49;75.40;;;71.20;;
15929;SDS011;8064;51.142;4.780;2023-06-10T03:12:15;101.90;;;96.72;;
15929;SDS011;8064;51.142;4.780;2023-06-10T03:14:41;212.50;;;200.38;;
15929;SDS011;8064;51.142;4.780;2023-06-10T03:17:07;143.02;;;136.00;;
15929;SDS011;8064;51.142;4.780;2023-06-10T03:19:33;141.57;;;134.68;;
15929;SDS011;8064;51.142;4.780;2023-06-10T03:22:10;152.85;;;144.93;;
15929;SDS011;8064;51.142;4.780;2023-06-10T03:24:37;20.70;;;19.30;;
15929;SDS011;8064;51.142;4.780;2023-06-10T03:27:06;13.38;;;12.25;;
15929;SDS011;8064;51.142;4.780;2023-06-10T03:29:32;13.87;;;12.77;;
15929;SDS011;8064;51.142;4.780;2023-06-10T03:31:58;13.38;;;12.05;;
15929;SDS011;8064;51.142;4.780;2023-06-10T03:34:24;12.77;;;11.57;;
15929;SDS011;8064;51.142;4.780;2023-06-10T03:36:50;11.52;;;10.55;;
15929;SDS011;8064;51.142;4.780;2023-06-10T03:39:16;11.53;;;10.50;;
15929;SDS011;8064;51.142;4.780;2023-06-10T03:41:41;11.32;;;10.23;;
15929;SDS011;8064;51.142;4.780;2023-06-10T03:44:07;9.68;;;8.88;;
15929;SDS011;8064;51.142;4.780;2023-06-10T03:46:33;9.77;;;8.60;;
15929;SDS011;8064;51.142;4.780;2023-06-10T03:48:59;11.40;;;8.82;;
15929;SDS011;8064;51.142;4.780;2023-06-10T03:51:26;9.50;;;8.50;;
15929;SDS011;8064;51.142;4.780;2023-06-10T03:53:52;10.07;;;8.43;;
15929;SDS011;8064;51.142;4.780;2023-06-10T03:56:18;10.13;;;9.13;;
15929;SDS011;8064;51.142;4.780;2023-06-10T03:58:43;9.23;;;8.43;;
15929;SDS011;8064;51.142;4.780;2023-06-10T04:01:09;11.07;;;9.47;;
15929;SDS011;8064;51.142;4.780;2023-06-10T04:03:35;9.73;;;8.82;;
15929;SDS011;8064;51.142;4.780;2023-06-10T04:06:01;10.07;;;8.87;;
15929;SDS011;8064;51.142;4.780;2023-06-10T04:08:27;9.18;;;8.40;;
15929;SDS011;8064;51.142;4.780;2023-06-10T04:10:54;10.60;;;8.73;;
15929;SDS011;8064;51.142;4.780;2023-06-10T04:13:19;10.37;;;9.37;;
15929;SDS011;8064;51.142;4.780;2023-06-10T04:15:45;10.45;;;9.40;;
15929;SDS011;8064;51.142;4.780;2023-06-10T04:18:11;9.88;;;8.93;;
15929;SDS011;8064;51.142;4.780;2023-06-10T04:20:37;12.13;;;8.93;;
15929;SDS011;8064;51.142;4.780;2023-06-10T04:23:03;10.40;;;9.40;;
15929;SDS011;8064;51.142;4.780;2023-06-10T04:25:29;12.65;;;10.05;;
15929;SDS011;8064;51.142;4.780;2023-06-10T04:27:55;10.77;;;8.83;;
15929;SDS011;8064;51.142;4.780;2023-06-10T04:30:20;12.25;;;10.73;;
15929;SDS011;8064;51.142;4.780;2023-06-10T04:32:47;10.05;;;9.15;;
15929;SDS011;8064;51.142;4.780;2023-06-10T04:35:13;10.15;;;9.15;;
15929;SDS011;8064;51.142;4.780;2023-06-10T04:37:40;10.57;;;9.57;;
15929;SDS011;8064;51.142;4.780;2023-06-10T04:40:06;10.57;;;9.65;;
15929;SDS011;8064;51.142;4.780;2023-06-10T04:42:33;10.70;;;9.73;;
15929;SDS011;8064;51.142;4.780;2023-06-10T04:44:59;10.47;;;9.47;;
15929;SDS011;8064;51.142;4.780;2023-06-10T04:47:25;13.02;;;8.70;;
15929;SDS011;8064;51.142;4.780;2023-06-10T04:49:51;10.25;;;9.30;;
15929;SDS011;8064;51.142;4.780;2023-06-10T04:52:17;11.13;;;10.02;;
15929;SDS011;8064;51.142;4.780;2023-06-10T04:54:43;11.02;;;9.85;;
15929;SDS011;8064;51.142;4.780;2023-06-10T04:57:09;10.48;;;9.57;;
15929;SDS011;8064;51.142;4.780;2023-06-10T04:59:36;11.02;;;10.00;;
15929;SDS011;8064;51.142;4.780;2023-06-10T05:02:03;10.50;;;9.52;;
15929;SDS011;8064;51.142;4.780;2023-06-10T05:04:30;10.23;;;9.25;;
15929;SDS011;8064;51.142;4.780;2023-06-10T05:06:56;10.70;;;9.77;;
15929;SDS011;8064;51.142;4.780;2023-06-10T05:09:21;10.52;;;8.95;;
15929;SDS011;8064;51.142;4.780;2023-06-10T05:11:47;11.95;;;9.80;;
15929;SDS011;8064;51.142;4.780;2023-06-10T05:14:13;11.65;;;10.55;;
15929;SDS011;8064;51.142;4.780;2023-06-10T05:16:41;10.90;;;9.80;;
15929;SDS011;8064;51.142;4.780;2023-06-10T05:19:08;10.15;;;9.35;;
15929;SDS011;8064;51.142;4.780;2023-06-10T05:21:34;11.18;;;9.77;;
15929;SDS011;8064;51.142;4.780;2023-06-10T05:23:59;12.68;;;10.52;;
15929;SDS011;8064;51.142;4.780;2023-06-10T05:26:25;10.57;;;9.57;;
15929;SDS011;8064;51.142;4.780;2023-06-10T05:28:51;11.38;;;9.90;;
15929;SDS011;8064;51.142;4.780;2023-06-10T05:31:17;11.13;;;9.98;;
15929;SDS011;8064;51.142;4.780;2023-06-10T05:33:43;10.70;;;9.73;;
15929;SDS011;8064;51.142;4.780;2023-06-10T05:36:09;10.57;;;9.57;;
15929;SDS011;8064;51.142;4.780;2023-06-10T05:38:35;10.43;;;9.40;;
15929;SDS011;8064;51.142;4.780;2023-06-10T05:41:01;11.40;;;10.23;;
15929;SDS011;8064;51.142;4.780;2023-06-10T05:43:26;13.27;;;9.95;;
15929;SDS011;8064;51.142;4.780;2023-06-10T05:45:52;11.65;;;9.98;;
15929;SDS011;8064;51.142;4.780;2023-06-10T05:48:18;10.77;;;9.77;;
15929;SDS011;8064;51.142;4.780;2023-06-10T05:50:45;10.90;;;9.75;;
15929;SDS011;8064;51.142;4.780;2023-06-10T05:53:13;10.88;;;9.30;;
15929;SDS011;8064;51.142;4.780;2023-06-10T05:55:42;10.82;;;9.93;;
15929;SDS011;8064;51.142;4.780;2023-06-10T05:58:09;10.48;;;9.50;;
15929;SDS011;8064;51.142;4.780;2023-06-10T06:00:35;10.95;;;9.95;;
15929;SDS011;8064;51.142;4.780;2023-06-10T06:03:01;10.98;;;9.90;;
15929;SDS011;8064;51.142;4.780;2023-06-10T06:05:27;10.27;;;9.32;;
15929;SDS011;8064;51.142;4.780;2023-06-10T06:07:52;14.00;;;9.20;;
15929;SDS011;8064;51.142;4.780;2023-06-10T06:10:18;10.00;;;9.02;;
15929;SDS011;8064;51.142;4.780;2023-06-10T06:12:44;13.27;;;9.57;;
15929;SDS011;8064;51.142;4.780;2023-06-10T06:15:10;10.30;;;9.25;;
15929;SDS011;8064;51.142;4.780;2023-06-10T06:17:36;11.13;;;9.32;;
15929;SDS011;8064;51.142;4.780;2023-06-10T06:20:03;10.10;;;9.10;;
15929;SDS011;8064;51.142;4.780;2023-06-10T06:22:29;12.07;;;9.30;;
15929;SDS011;8064;51.142;4.780;2023-06-10T06:24:55;9.65;;;8.68;;
15929;SDS011;8064;51.142;4.780;2023-06-10T06:27:20;9.95;;;8.95;;
15929;SDS011;8064;51.142;4.780;2023-06-10T06:29:46;11.82;;;9.80;;
15929;SDS011;8064;51.142;4.780;2023-06-10T06:32:12;14.10;;;9.85;;
15929;SDS011;8064;51.142;4.780;2023-06-10T06:34:38;13.75;;;10.98;;
15929;SDS011;8064;51.142;4.780;2023-06-10T06:37:04;12.80;;;11.57;;
15929;SDS011;8064;51.142;4.780;2023-06-10T06:39:30;16.40;;;15.20;;
15929;SDS011;8064;51.142;4.780;2023-06-10T06:41:55;61.92;;;58.47;;
15929;SDS011;8064;51.142;4.780;2023-06-10T06:44:22;77.50;;;73.55;;
15929;SDS011;8064;51.142;4.780;2023-06-10T06:46:48;26.67;;;24.98;;
15929;SDS011;8064;51.142;4.780;2023-06-10T06:49:14;27.08;;;25.50;;
15929;SDS011;8064;51.142;4.780;2023-06-10T06:51:39;23.40;;;21.92;;
15929;SDS011;8064;51.142;4.780;2023-06-10T06:54:05;21.30;;;19.95;;
15929;SDS011;8064;51.142;4.780;2023-06-10T06:56:31;13.25;;;11.98;;
15929;SDS011;8064;51.142;4.780;2023-06-10T06:58:57;12.73;;;11.60;;
15929;SDS011;8064;51.142;4.780;2023-06-10T07:01:23;12.07;;;11.18;;
15929;SDS011;8064;51.142;4.780;2023-06-10T07:03:48;11.63;;;10.63;;
15929;SDS011;8064;51.142;4.780;2023-06-10T07:06:14;11.52;;;10.63;;
15929;SDS011;8064;51.142;4.780;2023-06-10T07:08:40;11.02;;;9.77;;
15929;SDS011;8064;51.142;4.780;2023-06-10T07:11:06;12.02;;;9.65;;
15929;SDS011;8064;51.142;4.780;2023-06-10T07:13:31;11.50;;;10.50;;
15929;SDS011;8064;51.142;4.780;2023-06-10T07:15:57;10.32;;;9.48;;
15929;SDS011;8064;51.142;4.780;2023-06-10T07:18:23;10.88;;;9.75;;
15929;SDS011;8064;51.142;4.780;2023-06-10T07:20:49;10.13;;;9.20;;
15929;SDS011;8064;51.142;4.780;2023-06-10T07:23:15;10.00;;;9.30;;
15929;SDS011;8064;51.142;4.780;2023-06-10T07:25:41;9.68;;;8.98;;
15929;SDS011;8064;51.142;4.780;2023-06-10T07:28:07;9.60;;;8.77;;
15929;SDS011;8064;51.142;4.780;2023-06-10T07:30:33;9.52;;;8.73;;
15929;SDS011;8064;51.142;4.780;2023-06-10T07:32:59;9.73;;;8.75;;
15929;SDS011;8064;51.142;4.780;2023-06-10T07:35:24;10.30;;;9.07;;
15929;SDS011;8064;51.142;4.780;2023-06-10T07:37:50;9.40;;;8.25;;
15929;SDS011;8064;51.142;4.780;2023-06-10T07:40:16;10.23;;;9.25;;
15929;SDS011;8064;51.142;4.780;2023-06-10T07:42:42;9.38;;;8.48;;
15929;SDS011;8064;51.142;4.780;2023-06-10T07:45:08;10.55;;;8.45;;
15929;SDS011;8064;51.142;4.780;2023-06-10T07:47:34;10.13;;;9.27;;
15929;SDS011;8064;51.142;4.780;2023-06-10T07:50:00;12.55;;;8.07;;
15929;SDS011;8064;51.142;4.780;2023-06-10T07:52:26;8.93;;;8.20;;
15929;SDS011;8064;51.142;4.780;2023-06-10T07:54:53;9.27;;;8.38;;
15929;SDS011;8064;51.142;4.780;2023-06-10T07:57:19;9.45;;;7.72;;
15929;SDS011;8064;51.142;4.780;2023-06-10T07:59:45;8.68;;;7.88;;
15929;SDS011;8064;51.142;4.780;2023-06-10T08:02:11;8.80;;;8.00;;
15929;SDS011;8064;51.142;4.780;2023-06-10T08:04:37;8.63;;;7.82;;
15929;SDS011;8064;51.142;4.780;2023-06-10T08:07:02;9.52;;;8.55;;
15929;SDS011;8064;51.142;4.780;2023-06-10T08:09:28;9.55;;;8.38;;
15929;SDS011;8064;51.142;4.780;2023-06-10T08:11:54;15.75;;;8.50;;
15929;SDS011;8064;51.142;4.780;2023-06-10T08:14:20;8.45;;;7.65;;
15929;SDS011;8064;51.142;4.780;2023-06-10T08:16:46;9.00;;;8.10;;
15929;SDS011;8064;51.142;4.780;2023-06-10T08:19:12;9.48;;;8.48;;
15929;SDS011;8064;51.142;4.780;2023-06-10T08:21:38;9.27;;;8.43;;
15929;SDS011;8064;51.142;4.780;2023-06-10T08:24:05;8.15;;;7.55;;
15929;SDS011;8064;51.142;4.780;2023-06-10T08:26:32;8.60;;;7.82;;
15929;SDS011;8064;51.142;4.780;2023-06-10T08:28:59;8.35;;;7.65;;
15929;SDS011;8064;51.142;4.780;2023-06-10T08:31:25;8.05;;;7.35;;
15929;SDS011;8064;51.142;4.780;2023-06-10T08:33:51;8.35;;;7.65;;
15929;SDS011;8064;51.142;4.780;2023-06-10T08:36:16;9.23;;;8.32;;
15929;SDS011;8064;51.142;4.780;2023-06-10T08:38:43;7.90;;;7.20;;
15929;SDS011;8064;51.142;4.780;2023-06-10T08:41:09;11.43;;;7.25;;
15929;SDS011;8064;51.142;4.780;2023-06-10T08:43:54;8.63;;;7.45;;
15929;SDS011;8064;51.142;4.780;2023-06-10T08:46:29;9.13;;;7.53;;
15929;SDS011;8064;51.142;4.780;2023-06-10T08:48:56;12.18;;;7.15;;
15929;SDS011;8064;51.142;4.780;2023-06-10T08:51:27;8.20;;;7.40;;
15929;SDS011;8064;51.142;4.780;2023-06-10T08:53:59;9.02;;;7.90;;
15929;SDS011;8064;51.142;4.780;2023-06-10T08:56:29;16.90;;;7.82;;
15929;SDS011;8064;51.142;4.780;2023-06-10T08:58:56;8.95;;;7.65;;
15929;SDS011;8064;51.142;4.780;2023-06-10T09:01:24;8.13;;;7.40;;
15929;SDS011;8064;51.142;4.780;2023-06-10T09:03:51;8.77;;;7.35;;
15929;SDS011;8064;51.142;4.780;2023-06-10T09:06:18;8.45;;;6.95;;
15929;SDS011;8064;51.142;4.780;2023-06-10T09:08:44;9.82;;;8.48;;
15929;SDS011;8064;51.142;4.780;2023-06-10T09:11:10;11.45;;;10.00;;
15929;SDS011;8064;51.142;4.780;2023-06-10T09:13:35;13.57;;;12.60;;
15929;SDS011;8064;51.142;4.780;2023-06-10T09:16:01;12.95;;;11.95;;
15929;SDS011;8064;51.142;4.780;2023-06-10T09:18:28;11.25;;;10.35;;
15929;SDS011;8064;51.142;4.780;2023-06-10T09:20:54;12.10;;;11.00;;
15929;SDS011;8064;51.142;4.780;2023-06-10T09:23:21;13.45;;;12.50;;
15929;SDS011;8064;51.142;4.780;2023-06-10T09:25:51;14.45;;;13.07;;
15929;SDS011;8064;51.142;4.780;2023-06-10T09:28:22;16.67;;;15.57;;
15929;SDS011;8064;51.142;4.780;2023-06-10T09:30:48;18.20;;;16.92;;
15929;SDS011;8064;51.142;4.780;2023-06-10T09:33:14;17.50;;;16.30;;
15929;SDS011;8064;51.142;4.780;2023-06-10T09:35:49;23.98;;;22.58;;
15929;SDS011;8064;51.142;4.780;2023-06-10T09:38:19;23.48;;;22.15;;
15929;SDS011;8064;51.142;4.780;2023-06-10T09:43:39;24.80;;;23.45;;
15929;SDS011;8064;51.142;4.780;2023-06-10T09:46:07;26.30;;;24.42;;
15929;SDS011;8064;51.142;4.780;2023-06-10T09:48:41;24.17;;;22.65;;
15929;SDS011;8064;51.142;4.780;2023-06-10T09:51:09;24.27;;;22.77;;
15929;SDS011;8064;51.142;4.780;2023-06-10T09:53:36;26.77;;;25.27;;
15929;SDS011;8064;51.142;4.780;2023-06-10T09:56:02;21.25;;;19.95;;
15929;SDS011;8064;51.142;4.780;2023-06-10T10:01:12;23.48;;;21.88;;
15929;SDS011;8064;51.142;4.780;2023-06-10T10:06:23;24.98;;;23.58;;
15929;SDS011;8064;51.142;4.780;2023-06-10T10:08:50;22.92;;;21.42;;
15929;SDS011;8064;51.142;4.780;2023-06-10T10:11:16;21.45;;;20.15;;
15929;SDS011;8064;51.142;4.780;2023-06-10T10:13:45;22.90;;;21.40;;
15929;SDS011;8064;51.142;4.780;2023-06-10T10:19:25;18.90;;;17.60;;
15929;SDS011;8064;51.142;4.780;2023-06-10T10:21:57;20.50;;;19.20;;
15929;SDS011;8064;51.142;4.780;2023-06-10T10:24:33;24.40;;;23.00;;
15929;SDS011;8064;51.142;4.780;2023-06-10T10:27:02;25.58;;;24.20;;
15929;SDS011;8064;51.142;4.780;2023-06-10T10:29:37;20.02;;;18.85;;
15929;SDS011;8064;51.142;4.780;2023-06-10T10:32:04;19.85;;;18.40;;
15929;SDS011;8064;51.142;4.780;2023-06-10T10:37:11;19.58;;;17.98;;
15929;SDS011;8064;51.142;4.780;2023-06-10T10:39:37;19.50;;;18.40;;
15929;SDS011;8064;51.142;4.780;2023-06-10T10:42:04;17.50;;;16.40;;
15929;SDS011;8064;51.142;4.780;2023-06-10T10:44:30;19.15;;;18.05;;
15929;SDS011;8064;51.142;4.780;2023-06-10T10:46:57;16.38;;;15.27;;
15929;SDS011;8064;51.142;4.780;2023-06-10T10:49:28;21.38;;;19.98;;
15929;SDS011;8064;51.142;4.780;2023-06-10T10:51:57;16.00;;;15.02;;
15929;SDS011;8064;51.142;4.780;2023-06-10T11:02:32;12.85;;;11.95;;
15929;SDS011;8064;51.142;4.780;2023-06-10T11:05:00;12.10;;;11.30;;
15929;SDS011;8064;51.142;4.780;2023-06-10T11:07:26;11.25;;;10.55;;
15929;SDS011;8064;51.142;4.780;2023-06-10T11:15:22;11.95;;;11.05;;
15929;SDS011;8064;51.142;4.780;2023-06-10T11:26:17;12.88;;;12.02;;
15929;SDS011;8064;51.142;4.780;2023-06-10T11:33:59;11.73;;;10.80;;
15929;SDS011;8064;51.142;4.780;2023-06-10T11:36:28;11.55;;;10.65;;
15929;SDS011;8064;51.142;4.780;2023-06-10T11:38:56;12.60;;;11.40;;
15929;SDS011;8064;51.142;4.780;2023-06-10T11:41:23;11.13;;;10.40;;
15929;SDS011;8064;51.142;4.780;2023-06-10T11:43:51;10.90;;;10.10;;
15929;SDS011;8064;51.142;4.780;2023-06-10T11:46:19;11.05;;;10.30;;
15929;SDS011;8064;51.142;4.780;2023-06-10T11:51:32;12.15;;;10.88;;
15929;SDS011;8064;51.142;4.780;2023-06-10T11:53:59;12.10;;;11.02;;
15929;SDS011;8064;51.142;4.780;2023-06-10T11:56:26;11.98;;;10.98;;
15929;SDS011;8064;51.142;4.780;2023-06-10T11:58:53;16.50;;;15.57;;
15929;SDS011;8064;51.142;4.780;2023-06-10T12:01:20;11.95;;;11.13;;
15929;SDS011;8064;51.142;4.780;2023-06-10T12:03:47;14.15;;;11.25;;
15929;SDS011;8064;51.142;4.780;2023-06-10T12:06:21;11.13;;;10.35;;
15929;SDS011;8064;51.142;4.780;2023-06-10T12:08:46;11.40;;;10.52;;
15929;SDS011;8064;51.142;4.780;2023-06-10T12:11:12;21.90;;;20.40;;
15929;SDS011;8064;51.142;4.780;2023-06-10T12:13:38;10.75;;;9.95;;
15929;SDS011;8064;51.142;4.780;2023-06-10T12:16:13;10.73;;;10.05;;
15929;SDS011;8064;51.142;4.780;2023-06-10T12:18:39;10.95;;;9.95;;
15929;SDS011;8064;51.142;4.780;2023-06-10T12:21:17;10.77;;;9.88;;
15929;SDS011;8064;51.142;4.780;2023-06-10T12:23:59;10.90;;;10.10;;
15929;SDS011;8064;51.142;4.780;2023-06-10T12:29:15;11.27;;;10.32;;
15929;SDS011;8064;51.142;4.780;2023-06-10T12:31:54;10.75;;;10.05;;
15929;SDS011;8064;51.142;4.780;2023-06-10T12:34:35;10.52;;;9.73;;
15929;SDS011;8064;51.142;4.780;2023-06-10T12:37:03;10.27;;;9.43;;
15929;SDS011;8064;51.142;4.780;2023-06-10T12:39:32;10.70;;;9.82;;
15929;SDS011;8064;51.142;4.780;2023-06-10T12:41:59;9.88;;;8.98;;
15929;SDS011;8064;51.142;4.780;2023-06-10T12:47:10;12.60;;;11.63;;
15929;SDS011;8064;51.142;4.780;2023-06-10T12:49:37;10.90;;;10.10;;
15929;SDS011;8064;51.142;4.780;2023-06-10T12:52:04;10.85;;;9.88;;
15929;SDS011;8064;51.142;4.780;2023-06-10T12:54:30;11.85;;;10.70;;
15929;SDS011;8064;51.142;4.780;2023-06-10T12:56:57;10.15;;;9.25;;
15929;SDS011;8064;51.142;4.780;2023-06-10T12:59:23;10.70;;;9.88;;
15929;SDS011;8064;51.142;4.780;2023-06-10T13:04:33;10.38;;;9.65;;
15929;SDS011;8064;51.142;4.780;2023-06-10T13:06:59;10.88;;;10.07;;
15929;SDS011;8064;51.142;4.780;2023-06-10T13:09:25;10.75;;;9.80;;
15929;SDS011;8064;51.142;4.780;2023-06-10T13:11:50;10.98;;;10.27;;
15929;SDS011;8064;51.142;4.780;2023-06-10T13:14:17;10.55;;;9.82;;
15929;SDS011;8064;51.142;4.780;2023-06-10T13:16:43;10.85;;;9.95;;
15929;SDS011;8064;51.142;4.780;2023-06-10T13:19:09;10.15;;;9.40;;
15929;SDS011;8064;51.142;4.780;2023-06-10T13:21:36;11.45;;;10.38;;
15929;SDS011;8064;51.142;4.780;2023-06-10T13:24:02;26.48;;;25.05;;
15929;SDS011;8064;51.142;4.780;2023-06-10T13:26:28;10.48;;;9.45;;
15929;SDS011;8064;51.142;4.780;2023-06-10T13:28:54;10.95;;;10.07;;
15929;SDS011;8064;51.142;4.780;2023-06-10T13:31:20;10.25;;;9.45;;
15929;SDS011;8064;51.142;4.780;2023-06-10T13:33:46;10.48;;;9.50;;
15929;SDS011;8064;51.142;4.780;2023-06-10T13:36:12;10.20;;;9.40;;
15929;SDS011;8064;51.142;4.780;2023-06-10T13:38:38;10.48;;;9.77;;
15929;SDS011;8064;51.142;4.780;2023-06-10T13:41:03;10.90;;;9.93;;
15929;SDS011;8064;51.142;4.780;2023-06-10T13:43:29;10.52;;;9.52;;
15929;SDS011;8064;51.142;4.780;2023-06-10T13:45:55;10.45;;;9.70;;
15929;SDS011;8064;51.142;4.780;2023-06-10T13:48:21;10.35;;;9.48;;
15929;SDS011;8064;51.142;4.780;2023-06-10T13:50:47;9.85;;;9.15;;
15929;SDS011;8064;51.142;4.780;2023-06-10T13:53:12;10.98;;;9.98;;
15929;SDS011;8064;51.142;4.780;2023-06-10T13:55:38;11.13;;;10.07;;
15929;SDS011;8064;51.142;4.780;2023-06-10T13:58:04;10.50;;;9.70;;
15929;SDS011;8064;51.142;4.780;2023-06-10T14:00:30;10.27;;;9.43;;
15929;SDS011;8064;51.142;4.780;2023-06-10T14:02:56;10.43;;;9.50;;
15929;SDS011;8064;51.142;4.780;2023-06-10T14:05:22;10.30;;;9.70;;
15929;SDS011;8064;51.142;4.780;2023-06-10T14:07:48;10.60;;;9.75;;
15929;SDS011;8064;51.142;4.780;2023-06-10T14:10:14;9.68;;;8.95;;
15929;SDS011;8064;51.142;4.780;2023-06-10T14:12:39;10.07;;;9.27;;
15929;SDS011;8064;51.142;4.780;2023-06-10T14:15:05;10.73;;;9.75;;
15929;SDS011;8064;51.142;4.780;2023-06-10T14:17:32;10.75;;;9.95;;
15929;SDS011;8064;51.142;4.780;2023-06-10T14:19:57;10.95;;;10.05;;
15929;SDS011;8064;51.142;4.780;2023-06-10T14:22:23;11.02;;;10.05;;
15929;SDS011;8064;51.142;4.780;2023-06-10T14:24:49;10.13;;;9.20;;
15929;SDS011;8064;51.142;4.780;2023-06-10T14:27:14;9.88;;;9.02;;
15929;SDS011;8064;51.142;4.780;2023-06-10T14:29:40;10.50;;;9.65;;
15929;SDS011;8064;51.142;4.780;2023-06-10T14:32:07;9.98;;;9.18;;
15929;SDS011;8064;51.142;4.780;2023-06-10T14:34:33;9.80;;;8.85;;
15929;SDS011;8064;51.142;4.780;2023-06-10T14:37:00;10.55;;;9.63;;
15929;SDS011;8064;51.142;4.780;2023-06-10T14:39:29;9.57;;;8.98;;
15929;SDS011;8064;51.142;4.780;2023-06-10T14:41:55;10.75;;;9.80;;
15929;SDS011;8064;51.142;4.780;2023-06-10T14:44:20;19.63;;;18.52;;
15929;SDS011;8064;51.142;4.780;2023-06-10T14:46:46;10.43;;;9.63;;
15929;SDS011;8064;51.142;4.780;2023-06-10T14:49:12;10.80;;;10.00;;
15929;SDS011;8064;51.142;4.780;2023-06-10T14:51:38;11.02;;;10.05;;
15929;SDS011;8064;51.142;4.780;2023-06-10T14:54:04;10.15;;;9.55;;
15929;SDS011;8064;51.142;4.780;2023-06-10T14:56:29;9.52;;;8.88;;
15929;SDS011;8064;51.142;4.780;2023-06-10T14:58:55;10.60;;;9.85;;
15929;SDS011;8064;51.142;4.780;2023-06-10T15:01:21;10.93;;;10.18;;
15929;SDS011;8064;51.142;4.780;2023-06-10T15:03:47;10.70;;;9.88;;
15929;SDS011;8064;51.142;4.780;2023-06-10T15:06:12;10.40;;;9.55;;
15929;SDS011;8064;51.142;4.780;2023-06-10T15:08:42;10.70;;;9.82;;
15929;SDS011;8064;51.142;4.780;2023-06-10T15:11:08;11.10;;;10.30;;
15929;SDS011;8064;51.142;4.780;2023-06-10T15:13:34;11.27;;;10.45;;
15929;SDS011;8064;51.142;4.780;2023-06-10T15:15:59;11.82;;;10.93;;
15929;SDS011;8064;51.142;4.780;2023-06-10T15:18:25;11.50;;;10.38;;
15929;SDS011;8064;51.142;4.780;2023-06-10T15:20:51;9.93;;;9.23;;
15929;SDS011;8064;51.142;4.780;2023-06-10T15:23:17;10.55;;;9.85;;
15929;SDS011;8064;51.142;4.780;2023-06-10T15:25:42;11.15;;;10.45;;
15929;SDS011;8064;51.142;4.780;2023-06-10T15:28:09;10.98;;;10.07;;
15929;SDS011;8064;51.142;4.780;2023-06-10T15:30:35;10.60;;;9.90;;
15929;SDS011;8064;51.142;4.780;2023-06-10T15:33:02;10.40;;;9.70;;
15929;SDS011;8064;51.142;4.780;2023-06-10T15:35:28;10.55;;;9.85;;
15929;SDS011;8064;51.142;4.780;2023-06-10T15:37:53;11.18;;;10.40;;
15929;SDS011;8064;51.142;4.780;2023-06-10T15:40:19;10.32;;;9.48;;